sensor_id;sensor_type;location;lat;lon;timestamp;pressure;altitude;pressure_sealevel;temperature;humidity
57094;BME280;42970;50.996;3.706;2022-08-11T00:01:14;75815.59;;;-146.65;53.55
57094;BME280;42970;50.996;3.706;2022-08-11T00:03:49;75823.66;;;-146.65;53.40
57094;BME280;42970;50.996;3.706;2022-08-11T00:06:29;75831.75;;;-146.65;53.64
57094;BME280;42970;50.996;3.706;2022-08-11T00:08:56;75833.75;;;-146.65;53.94
57094;BME280;42970;50.996;3.706;2022-08-11T00:11:31;75843.84;;;-146.65;54.04
57094;BME280;42970;50.996;3.706;2022-08-11T00:13:58;75857.97;;;-146.65;54.41
57094;BME280;42970;50.996;3.706;2022-08-11T00:16:24;75851.91;;;-146.65;54.24
57094;BME280;42970;50.996;3.706;2022-08-11T00:18:55;75857.97;;;-146.65;54.53
57094;BME280;42970;50.996;3.706;2022-08-11T00:21:23;75878.13;;;-146.65;54.65
57094;BME280;42970;50.996;3.706;2022-08-11T00:24:15;75872.09;;;-146.65;54.72
57094;BME280;42970;50.996;3.706;2022-08-11T00:26:47;75878.13;;;-146.65;54.50
57094;BME280;42970;50.996;3.706;2022-08-11T00:29:14;75882.16;;;-146.65;54.66
57094;BME280;42970;50.996;3.706;2022-08-11T00:31:50;75882.16;;;-146.65;54.78
57094;BME280;42970;50.996;3.706;2022-08-11T00:34:20;75892.25;;;-146.65;54.61
57094;BME280;42970;50.996;3.706;2022-08-11T00:36:49;75888.22;;;-146.65;54.27
57094;BME280;42970;50.996;3.706;2022-08-11T00:39:18;75884.19;;;-146.65;54.20
57094;BME280;42970;50.996;3.706;2022-08-11T00:41:57;75888.22;;;-146.65;54.22
57094;BME280;42970;50.996;3.706;2022-08-11T01:24:24;75948.75;;;-146.65;54.95
57094;BME280;42970;50.996;3.706;2022-08-11T01:29:21;75964.88;;;-146.65;55.48
57094;BME280;42970;50.996;3.706;2022-08-11T01:40:37;75976.97;;;-146.65;55.83
57094;BME280;42970;50.996;3.706;2022-08-11T01:46:20;75985.03;;;-146.65;56.07
57094;BME280;42970;50.996;3.706;2022-08-11T01:49:54;75976.97;;;-146.65;55.75
57094;BME280;42970;50.996;3.706;2022-08-11T01:57:11;75999.16;;;-146.65;56.15
57094;BME280;42970;50.996;3.706;2022-08-11T01:59:47;75993.13;;;-146.65;56.01
57094;BME280;42970;50.996;3.706;2022-08-11T02:02:30;75997.16;;;-146.65;56.17
57094;BME280;42970;50.996;3.706;2022-08-11T02:05:28;76007.25;;;-146.65;56.48
57094;BME280;42970;50.996;3.706;2022-08-11T02:08:20;76021.34;;;-146.65;56.51
57094;BME280;42970;50.996;3.706;2022-08-11T02:19:54;76049.59;;;-146.65;57.26
57094;BME280;42970;50.996;3.706;2022-08-11T02:25:54;76077.84;;;-146.65;57.63
57094;BME280;42970;50.996;3.706;2022-08-11T02:28:28;76089.94;;;-146.65;57.85
57094;BME280;42970;50.996;3.706;2022-08-11T02:31:06;76093.97;;;-146.65;57.84
57094;BME280;42970;50.996;3.706;2022-08-11T02:37:02;76100.03;;;-146.65;58.13
57094;BME280;42970;50.996;3.706;2022-08-11T02:39:47;76112.13;;;-146.65;58.45
57094;BME280;42970;50.996;3.706;2022-08-11T02:42:27;76114.16;;;-146.65;58.36
57094;BME280;42970;50.996;3.706;2022-08-11T02:47:57;76126.25;;;-146.65;58.71
57094;BME280;42970;50.996;3.706;2022-08-11T02:53:48;76144.41;;;-146.65;58.69
57094;BME280;42970;50.996;3.706;2022-08-11T03:13:41;76124.25;;;-146.65;58.06
57094;BME280;42970;50.996;3.706;2022-08-11T03:16:37;76130.28;;;-146.65;58.03
57094;BME280;42970;50.996;3.706;2022-08-11T03:22:08;76136.34;;;-146.65;58.00
57094;BME280;42970;50.996;3.706;2022-08-11T03:25:07;76134.31;;;-146.65;57.89
57094;BME280;42970;50.996;3.706;2022-08-11T03:33:37;76148.44;;;-146.65;58.19
57094;BME280;42970;50.996;3.706;2022-08-11T03:42:45;76164.59;;;-146.65;58.43
57094;BME280;42970;50.996;3.706;2022-08-11T03:45:20;76174.69;;;-146.65;58.68
57094;BME280;42970;50.996;3.706;2022-08-11T03:48:02;76176.69;;;-146.65;58.28
57094;BME280;42970;50.996;3.706;2022-08-11T03:50:53;76162.56;;;-146.65;58.02
57094;BME280;42970;50.996;3.706;2022-08-11T03:59:14;76162.56;;;-146.65;57.68
57094;BME280;42970;50.996;3.706;2022-08-11T04:07:44;76172.66;;;-146.65;57.85
57094;BME280;42970;50.996;3.706;2022-08-11T04:10:35;76178.72;;;-146.65;57.86
57094;BME280;42970;50.996;3.706;2022-08-11T04:19:09;76186.78;;;-146.65;58.00
57094;BME280;42970;50.996;3.706;2022-08-11T04:22:02;76182.75;;;-146.65;57.63
57094;BME280;42970;50.996;3.706;2022-08-11T04:30:10;76190.81;;;-146.65;58.00
57094;BME280;42970;50.996;3.706;2022-08-11T04:41:28;76206.97;;;-146.65;58.14
57094;BME280;42970;50.996;3.706;2022-08-11T04:44:23;76202.91;;;-146.65;58.13
57094;BME280;42970;50.996;3.706;2022-08-11T04:46:58;76206.97;;;-146.65;58.17
57094;BME280;42970;50.996;3.706;2022-08-11T04:49:53;76208.97;;;-146.65;58.25
57094;BME280;42970;50.996;3.706;2022-08-11T04:56:08;76206.97;;;-146.65;58.28
57094;BME280;42970;50.996;3.706;2022-08-11T04:59:22;76213.00;;;-146.65;58.02
57094;BME280;42970;50.996;3.706;2022-08-11T05:02:48;76196.88;;;-146.65;57.64
57094;BME280;42970;50.996;3.706;2022-08-11T05:13:51;76188.78;;;-146.65;57.34
57094;BME280;42970;50.996;3.706;2022-08-11T05:16:51;76186.78;;;-146.65;57.13
57094;BME280;42970;50.996;3.706;2022-08-11T05:19:36;76180.72;;;-146.65;57.21
57094;BME280;42970;50.996;3.706;2022-08-11T05:22:28;76176.69;;;-146.65;56.93
57094;BME280;42970;50.996;3.706;2022-08-11T05:25:21;76170.66;;;-146.65;56.84
57094;BME280;42970;50.996;3.706;2022-08-11T05:28:10;76166.59;;;-146.65;56.86
57094;BME280;42970;50.996;3.706;2022-08-11T05:31:11;76164.59;;;-146.65;56.25
57094;BME280;42970;50.996;3.706;2022-08-11T05:34:02;76156.53;;;-146.65;56.07
57094;BME280;42970;50.996;3.706;2022-08-11T05:36:51;76134.31;;;-146.65;55.86
57094;BME280;42970;50.996;3.706;2022-08-11T05:39:23;76118.19;;;-146.65;55.64
57094;BME280;42970;50.996;3.706;2022-08-11T05:42:09;76118.19;;;-146.65;55.43
57094;BME280;42970;50.996;3.706;2022-08-11T05:44:58;76110.13;;;-146.65;55.08
57094;BME280;42970;50.996;3.706;2022-08-11T05:47:48;76108.09;;;-146.65;54.68
57094;BME280;42970;50.996;3.706;2022-08-11T05:50:33;76098.03;;;-146.65;54.47
57094;BME280;42970;50.996;3.706;2022-08-11T05:53:17;76085.91;;;-146.65;54.32
57094;BME280;42970;50.996;3.706;2022-08-11T05:56:05;76077.84;;;-146.65;53.86
57094;BME280;42970;50.996;3.706;2022-08-11T05:58:48;76045.56;;;-146.65;54.08
57094;BME280;42970;50.996;3.706;2022-08-11T06:01:26;76045.56;;;-146.65;53.17
57094;BME280;42970;50.996;3.706;2022-08-11T06:03:55;76027.41;;;-146.65;52.83
57094;BME280;42970;50.996;3.706;2022-08-11T06:06:46;76005.22;;;-146.65;52.47
57094;BME280;42970;50.996;3.706;2022-08-11T06:09:13;75997.16;;;-146.65;52.20
57094;BME280;42970;50.996;3.706;2022-08-11T06:11:41;75997.16;;;-146.65;51.69
57094;BME280;42970;50.996;3.706;2022-08-11T06:14:10;75991.09;;;-146.65;51.62
57094;BME280;42970;50.996;3.706;2022-08-11T06:16:36;75970.94;;;-146.65;51.29
57094;BME280;42970;50.996;3.706;2022-08-11T06:19:04;75962.84;;;-146.65;50.92
57094;BME280;42970;50.996;3.706;2022-08-11T06:21:33;75956.81;;;-146.65;51.02
57094;BME280;42970;50.996;3.706;2022-08-11T06:24:03;75944.69;;;-146.65;50.58
57094;BME280;42970;50.996;3.706;2022-08-11T06:26:30;75936.63;;;-146.65;50.68
57094;BME280;42970;50.996;3.706;2022-08-11T06:28:57;75926.56;;;-146.65;50.00
57094;BME280;42970;50.996;3.706;2022-08-11T06:31:26;75930.59;;;-146.65;50.26
57094;BME280;42970;50.996;3.706;2022-08-11T06:34:00;75912.44;;;-146.65;49.79
57094;BME280;42970;50.996;3.706;2022-08-11T06:36:53;75894.28;;;-146.65;49.94
57094;BME280;42970;50.996;3.706;2022-08-11T06:39:31;75900.31;;;-146.65;50.14
57094;BME280;42970;50.996;3.706;2022-08-11T06:42:07;75884.19;;;-146.65;49.57
57094;BME280;42970;50.996;3.706;2022-08-11T06:44:51;75878.13;;;-146.65;49.37
57094;BME280;42970;50.996;3.706;2022-08-11T06:47:23;75845.84;;;-146.65;49.22
57094;BME280;42970;50.996;3.706;2022-08-11T06:49:49;75829.72;;;-146.65;48.90
57094;BME280;42970;50.996;3.706;2022-08-11T06:52:37;75813.59;;;-146.65;48.34
57094;BME280;42970;50.996;3.706;2022-08-11T06:55:14;75801.47;;;-146.65;48.59
57094;BME280;42970;50.996;3.706;2022-08-11T06:58:12;75787.38;;;-146.65;48.47
57094;BME280;42970;50.996;3.706;2022-08-11T07:00:59;75771.22;;;-146.65;47.85
57094;BME280;42970;50.996;3.706;2022-08-11T07:03:35;75751.06;;;-146.65;47.85
57094;BME280;42970;50.996;3.706;2022-08-11T07:08:54;75722.81;;;-146.65;47.03
57094;BME280;42970;50.996;3.706;2022-08-11T07:14:32;75700.63;;;-146.65;46.13
57094;BME280;42970;50.996;3.706;2022-08-11T07:17:20;75684.50;;;-146.65;45.61
57094;BME280;42970;50.996;3.706;2022-08-11T07:19:52;75678.44;;;-146.65;45.31
57094;BME280;42970;50.996;3.706;2022-08-11T07:22:37;75662.31;;;-146.65;45.75
57094;BME280;42970;50.996;3.706;2022-08-11T07:25:23;75650.19;;;-146.65;44.29
57094;BME280;42970;50.996;3.706;2022-08-11T07:28:17;75634.06;;;-146.65;44.01
57094;BME280;42970;50.996;3.706;2022-08-11T07:31:08;75621.97;;;-146.65;43.58
57094;BME280;42970;50.996;3.706;2022-08-11T07:33:54;75617.94;;;-146.65;43.59
57094;BME280;42970;50.996;3.706;2022-08-11T07:36:24;75609.84;;;-146.65;42.69
57094;BME280;42970;50.996;3.706;2022-08-11T07:38:53;75585.66;;;-146.65;42.56
57094;BME280;42970;50.996;3.706;2022-08-11T07:41:23;75573.53;;;-146.65;42.78
57094;BME280;42970;50.996;3.706;2022-08-11T07:43:54;75537.25;;;-146.65;43.08
57094;BME280;42970;50.996;3.706;2022-08-11T07:46:43;75513.03;;;-146.65;42.25
57094;BME280;42970;50.996;3.706;2022-08-11T07:49:30;75488.84;;;-146.65;41.97
57094;BME280;42970;50.996;3.706;2022-08-11T07:52:14;75486.81;;;-146.65;41.42
57094;BME280;42970;50.996;3.706;2022-08-11T07:55:06;75472.69;;;-146.65;40.44
57094;BME280;42970;50.996;3.706;2022-08-11T07:57:32;75464.63;;;-146.65;40.57
57094;BME280;42970;50.996;3.706;2022-08-11T08:00:17;75448.50;;;-146.65;41.12
57094;BME280;42970;50.996;3.706;2022-08-11T08:03:04;75428.31;;;-146.65;40.87
57094;BME280;42970;50.996;3.706;2022-08-11T08:05:49;75410.16;;;-146.65;40.28
57094;BME280;42970;50.996;3.706;2022-08-11T08:08:35;75398.06;;;-146.65;39.75
57094;BME280;42970;50.996;3.706;2022-08-11T08:11:20;75371.84;;;-146.65;39.75
57094;BME280;42970;50.996;3.706;2022-08-11T08:14:06;75357.72;;;-146.65;40.10
57094;BME280;42970;50.996;3.706;2022-08-11T08:16:51;75333.53;;;-146.65;40.07
57094;BME280;42970;50.996;3.706;2022-08-11T08:19:36;75319.41;;;-146.65;38.95
57094;BME280;42970;50.996;3.706;2022-08-11T08:22:03;75309.31;;;-146.65;38.81
57094;BME280;42970;50.996;3.706;2022-08-11T08:24:29;75287.13;;;-146.65;38.79
57094;BME280;42970;50.996;3.706;2022-08-11T08:26:55;75287.13;;;-146.65;38.12
57094;BME280;42970;50.996;3.706;2022-08-11T08:29:30;75260.91;;;-146.65;38.05
57094;BME280;42970;50.996;3.706;2022-08-11T08:32:16;75246.78;;;-146.65;37.34
57094;BME280;42970;50.996;3.706;2022-08-11T08:34:42;75244.78;;;-146.65;37.31
57094;BME280;42970;50.996;3.706;2022-08-11T08:37:08;75212.50;;;-146.65;37.62
57094;BME280;42970;50.996;3.706;2022-08-11T08:39:34;75218.56;;;-146.65;36.50
57094;BME280;42970;50.996;3.706;2022-08-11T08:42:06;75206.47;;;-146.65;36.18
57094;BME280;42970;50.996;3.706;2022-08-11T08:44:39;75196.38;;;-146.65;36.14
57094;BME280;42970;50.996;3.706;2022-08-11T08:47:06;75188.31;;;-146.65;35.47
57094;BME280;42970;50.996;3.706;2022-08-11T08:49:36;75164.09;;;-146.65;35.55
57094;BME280;42970;50.996;3.706;2022-08-11T08:52:04;75168.13;;;-146.65;34.35
57094;BME280;42970;50.996;3.706;2022-08-11T08:54:37;75162.09;;;-146.65;34.38
57094;BME280;42970;50.996;3.706;2022-08-11T08:57:05;75156.03;;;-146.65;34.14
57094;BME280;42970;50.996;3.706;2022-08-11T08:59:36;75141.91;;;-146.65;34.01
57094;BME280;42970;50.996;3.706;2022-08-11T09:02:04;75103.59;;;-146.65;34.13
57094;BME280;42970;50.996;3.706;2022-08-11T09:04:31;75089.47;;;-146.65;34.10
57094;BME280;42970;50.996;3.706;2022-08-11T09:06:59;75075.38;;;-146.65;34.06
57094;BME280;42970;50.996;3.706;2022-08-11T09:09:28;75081.41;;;-146.65;33.94
57094;BME280;42970;50.996;3.706;2022-08-11T09:11:56;75067.28;;;-146.65;33.64
57094;BME280;42970;50.996;3.706;2022-08-11T09:16:50;75020.91;;;-146.65;33.37
57094;BME280;42970;50.996;3.706;2022-08-11T09:19:19;74996.72;;;-146.65;33.11
57094;BME280;42970;50.996;3.706;2022-08-11T09:21:48;74982.59;;;-146.65;33.37
57094;BME280;42970;50.996;3.706;2022-08-11T09:24:37;74952.34;;;-146.65;32.92
57094;BME280;42970;50.996;3.706;2022-08-11T09:27:22;74914.03;;;-146.65;32.53
57094;BME280;42970;50.996;3.706;2022-08-11T09:29:50;74956.38;;;-146.65;32.47
57094;BME280;42970;50.996;3.706;2022-08-11T09:32:20;74958.38;;;-146.65;32.37
57094;BME280;42970;50.996;3.706;2022-08-11T09:34:46;74920.06;;;-146.65;32.19
57094;BME280;42970;50.996;3.706;2022-08-11T09:37:13;74928.13;;;-146.65;31.78
57094;BME280;42970;50.996;3.706;2022-08-11T09:39:58;74920.06;;;-146.65;31.59
57094;BME280;42970;50.996;3.706;2022-08-11T09:42:42;74914.03;;;-146.65;31.89
57094;BME280;42970;50.996;3.706;2022-08-11T09:45:28;74845.47;;;-146.65;31.68
57094;BME280;42970;50.996;3.706;2022-08-11T09:47:56;74841.41;;;-146.65;31.18
57094;BME280;42970;50.996;3.706;2022-08-11T09:50:23;74791.00;;;-146.65;30.74
57094;BME280;42970;50.996;3.706;2022-08-11T09:52:49;74786.97;;;-146.65;30.59
57094;BME280;42970;50.996;3.706;2022-08-11T09:55:15;74829.31;;;-146.65;30.62
57094;BME280;42970;50.996;3.706;2022-08-11T09:57:45;74845.47;;;-146.65;30.40
57094;BME280;42970;50.996;3.706;2022-08-11T10:00:32;74791.00;;;-146.65;30.07
57094;BME280;42970;50.996;3.706;2022-08-11T10:03:06;74805.13;;;-146.65;30.21
57094;BME280;42970;50.996;3.706;2022-08-11T10:05:33;74789.00;;;-146.65;29.92
57094;BME280;42970;50.996;3.706;2022-08-11T10:08:18;74720.41;;;-146.65;29.16
57094;BME280;42970;50.996;3.706;2022-08-11T10:10:45;74708.31;;;-146.65;28.85
57094;BME280;42970;50.996;3.706;2022-08-11T10:13:16;74700.25;;;-146.65;28.36
57094;BME280;42970;50.996;3.706;2022-08-11T10:15:43;74730.50;;;-146.65;28.66
57094;BME280;42970;50.996;3.706;2022-08-11T10:18:16;74702.28;;;-146.65;28.74
57094;BME280;42970;50.996;3.706;2022-08-11T10:21:06;74698.25;;;-146.65;28.62
57094;BME280;42970;50.996;3.706;2022-08-11T10:23:35;74676.06;;;-146.65;28.53
57094;BME280;42970;50.996;3.706;2022-08-11T10:26:33;74635.72;;;-146.65;28.25
57094;BME280;42970;50.996;3.706;2022-08-11T10:32:07;74581.28;;;-146.65;28.01
57094;BME280;42970;50.996;3.706;2022-08-11T10:34:52;74631.69;;;-146.65;27.60
57094;BME280;42970;50.996;3.706;2022-08-11T10:37:20;74597.41;;;-146.65;27.23
57094;BME280;42970;50.996;3.706;2022-08-11T10:39:47;74611.53;;;-146.65;27.53
57094;BME280;42970;50.996;3.706;2022-08-11T10:42:13;74597.41;;;-146.65;26.93
57094;BME280;42970;50.996;3.706;2022-08-11T10:44:59;74573.22;;;-146.65;26.85
57094;BME280;42970;50.996;3.706;2022-08-11T10:47:26;74522.78;;;-146.65;26.14
57094;BME280;42970;50.996;3.706;2022-08-11T10:50:10;74405.84;;;-146.65;25.92
57094;BME280;42970;50.996;3.706;2022-08-11T10:52:57;74405.84;;;-146.65;26.02
57094;BME280;42970;50.996;3.706;2022-08-11T10:55:43;74399.78;;;-146.65;25.47
57094;BME280;42970;50.996;3.706;2022-08-11T10:58:29;74409.88;;;-146.65;25.68
57094;BME280;42970;50.996;3.706;2022-08-11T11:01:25;74327.19;;;-146.65;25.65
57094;BME280;42970;50.996;3.706;2022-08-11T11:04:03;74210.25;;;-146.65;25.12
57094;BME280;42970;50.996;3.706;2022-08-11T11:06:37;74290.91;;;-146.65;25.17
57094;BME280;42970;50.996;3.706;2022-08-11T11:09:23;74373.56;;;-146.65;25.26
57094;BME280;42970;50.996;3.706;2022-08-11T11:11:57;74274.78;;;-146.65;25.01
57094;BME280;42970;50.996;3.706;2022-08-11T11:14:43;74264.69;;;-146.65;24.72
57094;BME280;42970;50.996;3.706;2022-08-11T11:17:34;74298.97;;;-146.65;24.64
57094;BME280;42970;50.996;3.706;2022-08-11T11:20:24;74236.47;;;-146.65;24.97
57094;BME280;42970;50.996;3.706;2022-08-11T11:22:53;74270.75;;;-146.65;25.14
57094;BME280;42970;50.996;3.706;2022-08-11T11:25:22;74190.09;;;-146.65;24.49
57094;BME280;42970;50.996;3.706;2022-08-11T11:28:09;74194.13;;;-146.65;24.83
57094;BME280;42970;50.996;3.706;2022-08-11T11:36:14;74204.19;;;-146.65;24.71
57094;BME280;42970;50.996;3.706;2022-08-11T11:38:43;74204.19;;;-146.65;24.68
57094;BME280;42970;50.996;3.706;2022-08-11T11:41:09;74111.44;;;-146.65;24.01
57094;BME280;42970;50.996;3.706;2022-08-11T11:43:49;74186.06;;;-146.65;24.07
57094;BME280;42970;50.996;3.706;2022-08-11T11:46:16;74113.47;;;-146.65;23.82
57094;BME280;42970;50.996;3.706;2022-08-11T11:48:42;74208.22;;;-146.65;24.50
57094;BME280;42970;50.996;3.706;2022-08-11T11:51:08;74107.41;;;-146.65;24.23
57094;BME280;42970;50.996;3.706;2022-08-11T11:53:40;74081.19;;;-146.65;24.09
57094;BME280;42970;50.996;3.706;2022-08-11T11:56:07;74075.16;;;-146.65;23.72
57094;BME280;42970;50.996;3.706;2022-08-11T11:58:33;73980.38;;;-146.65;23.76
57094;BME280;42970;50.996;3.706;2022-08-11T12:01:18;74081.19;;;-146.65;23.88
57094;BME280;42970;50.996;3.706;2022-08-11T12:03:49;74010.63;;;-146.65;23.61
57094;BME280;42970;50.996;3.706;2022-08-11T12:06:17;74139.66;;;-146.65;23.99
57094;BME280;42970;50.996;3.706;2022-08-11T12:08:47;73927.97;;;-146.65;22.99
57094;BME280;42970;50.996;3.706;2022-08-11T12:11:14;74016.69;;;-146.65;23.61
57094;BME280;42970;50.996;3.706;2022-08-11T12:14:02;74012.66;;;-146.65;23.71
57094;BME280;42970;50.996;3.706;2022-08-11T12:16:28;73915.88;;;-146.65;23.09
57094;BME280;42970;50.996;3.706;2022-08-11T12:18:57;74004.59;;;-146.65;23.31
57094;BME280;42970;50.996;3.706;2022-08-11T12:21:23;73938.03;;;-146.65;22.77
57094;BME280;42970;50.996;3.706;2022-08-11T12:23:49;73899.75;;;-146.65;22.77
57094;BME280;42970;50.996;3.706;2022-08-11T12:26:35;73962.25;;;-146.65;23.15
57094;BME280;42970;50.996;3.706;2022-08-11T12:29:24;74024.75;;;-146.65;23.32
57094;BME280;42970;50.996;3.706;2022-08-11T12:31:52;74149.75;;;-146.65;24.04
57094;BME280;42970;50.996;3.706;2022-08-11T12:34:18;73952.16;;;-146.65;23.17
57094;BME280;42970;50.996;3.706;2022-08-11T12:36:58;73911.84;;;-146.65;23.14
57094;BME280;42970;50.996;3.706;2022-08-11T12:39:30;73861.44;;;-146.65;22.88
57094;BME280;42970;50.996;3.706;2022-08-11T12:42:17;73786.84;;;-146.65;22.67
57094;BME280;42970;50.996;3.706;2022-08-11T12:45:02;74036.84;;;-146.65;23.63
57094;BME280;42970;50.996;3.706;2022-08-11T12:47:52;73966.28;;;-146.65;23.24
57094;BME280;42970;50.996;3.706;2022-08-11T12:50:36;73978.38;;;-146.65;23.41
57094;BME280;42970;50.996;3.706;2022-08-11T12:53:25;73811.03;;;-146.65;22.50
57094;BME280;42970;50.996;3.706;2022-08-11T12:55:54;73839.25;;;-146.65;22.35
57094;BME280;42970;50.996;3.706;2022-08-11T12:58:40;73893.69;;;-146.65;22.34
57094;BME280;42970;50.996;3.706;2022-08-11T13:01:06;73976.34;;;-146.65;22.62
57094;BME280;42970;50.996;3.706;2022-08-11T13:03:53;74105.41;;;-146.65;23.69
57094;BME280;42970;50.996;3.706;2022-08-11T13:06:38;74063.06;;;-146.65;23.61
57094;BME280;42970;50.996;3.706;2022-08-11T13:09:06;74139.66;;;-146.65;23.51
57094;BME280;42970;50.996;3.706;2022-08-11T13:11:33;74161.84;;;-146.65;23.36
57094;BME280;42970;50.996;3.706;2022-08-11T13:14:21;74165.88;;;-146.65;23.82
57094;BME280;42970;50.996;3.706;2022-08-11T13:16:48;74222.34;;;-146.65;24.20
57094;BME280;42970;50.996;3.706;2022-08-11T13:19:32;74248.56;;;-146.65;24.49
57094;BME280;42970;50.996;3.706;2022-08-11T13:21:59;74250.56;;;-146.65;24.28
57094;BME280;42970;50.996;3.706;2022-08-11T13:24:27;74242.50;;;-146.65;24.27
57094;BME280;42970;50.996;3.706;2022-08-11T13:26:53;74351.41;;;-146.65;24.92
57094;BME280;42970;50.996;3.706;2022-08-11T13:29:24;74331.22;;;-146.65;24.74
57094;BME280;42970;50.996;3.706;2022-08-11T13:31:51;74300.97;;;-146.65;24.76
57094;BME280;42970;50.996;3.706;2022-08-11T13:34:19;74280.81;;;-146.65;24.98
57094;BME280;42970;50.996;3.706;2022-08-11T13:36:48;74325.19;;;-146.65;24.53
57094;BME280;42970;50.996;3.706;2022-08-11T13:39:14;74365.50;;;-146.65;25.11
57094;BME280;42970;50.996;3.706;2022-08-11T13:41:41;74343.31;;;-146.65;25.66
57094;BME280;42970;50.996;3.706;2022-08-11T13:44:10;74369.53;;;-146.65;25.52
57094;BME280;42970;50.996;3.706;2022-08-11T13:46:38;74381.63;;;-146.65;25.16
57094;BME280;42970;50.996;3.706;2022-08-11T13:49:05;74381.63;;;-146.65;25.38
57094;BME280;42970;50.996;3.706;2022-08-11T13:51:33;74363.50;;;-146.65;25.26
57094;BME280;42970;50.996;3.706;2022-08-11T13:54:08;74379.63;;;-146.65;25.26
57094;BME280;42970;50.996;3.706;2022-08-11T13:56:37;74337.28;;;-146.65;25.57
57094;BME280;42970;50.996;3.706;2022-08-11T13:59:04;74355.44;;;-146.65;25.33
57094;BME280;42970;50.996;3.706;2022-08-11T14:01:34;74341.31;;;-146.65;24.95
57094;BME280;42970;50.996;3.706;2022-08-11T14:04:07;74351.41;;;-146.65;25.43
57094;BME280;42970;50.996;3.706;2022-08-11T14:06:33;74343.31;;;-146.65;25.28
57094;BME280;42970;50.996;3.706;2022-08-11T14:09:02;74343.31;;;-146.65;25.35
57094;BME280;42970;50.996;3.706;2022-08-11T14:11:28;74331.22;;;-146.65;25.29
57094;BME280;42970;50.996;3.706;2022-08-11T14:14:18;74341.31;;;-146.65;25.33
57094;BME280;42970;50.996;3.706;2022-08-11T14:16:46;74331.22;;;-146.65;25.09
57094;BME280;42970;50.996;3.706;2022-08-11T14:19:13;74321.16;;;-146.65;24.48
57094;BME280;42970;50.996;3.706;2022-08-11T14:21:43;74355.44;;;-146.65;24.91
57094;BME280;42970;50.996;3.706;2022-08-11T14:24:28;74357.44;;;-146.65;24.93
57094;BME280;42970;50.996;3.706;2022-08-11T14:26:54;74335.25;;;-146.65;25.42
57094;BME280;42970;50.996;3.706;2022-08-11T14:29:22;74319.13;;;-146.65;25.55
57094;BME280;42970;50.996;3.706;2022-08-11T14:31:55;74339.28;;;-146.65;25.41
57094;BME280;42970;50.996;3.706;2022-08-11T14:34:25;74323.16;;;-146.65;25.23
57094;BME280;42970;50.996;3.706;2022-08-11T14:36:54;74327.19;;;-146.65;25.54
57094;BME280;42970;50.996;3.706;2022-08-11T14:39:24;74294.94;;;-146.65;25.36
57094;BME280;42970;50.996;3.706;2022-08-11T14:41:59;74315.09;;;-146.65;24.93
57094;BME280;42970;50.996;3.706;2022-08-11T14:44:47;74333.25;;;-146.65;25.52
57094;BME280;42970;50.996;3.706;2022-08-11T14:47:38;74294.94;;;-146.65;25.46
57094;BME280;42970;50.996;3.706;2022-08-11T14:50:05;74278.81;;;-146.65;25.36
57094;BME280;42970;50.996;3.706;2022-08-11T14:52:33;74311.06;;;-146.65;24.90
57094;BME280;42970;50.996;3.706;2022-08-11T14:55:03;74296.94;;;-146.65;25.04
57094;BME280;42970;50.996;3.706;2022-08-11T14:57:47;74313.09;;;-146.65;25.19
57094;BME280;42970;50.996;3.706;2022-08-11T15:00:15;74307.03;;;-146.65;25.44
57094;BME280;42970;50.996;3.706;2022-08-11T15:02:44;74305.00;;;-146.65;25.23
57094;BME280;42970;50.996;3.706;2022-08-11T15:05:30;74311.06;;;-146.65;24.99
57094;BME280;42970;50.996;3.706;2022-08-11T15:07:56;74282.84;;;-146.65;25.45
57094;BME280;42970;50.996;3.706;2022-08-11T15:10:22;74294.94;;;-146.65;25.49
57094;BME280;42970;50.996;3.706;2022-08-11T15:12:48;74305.00;;;-146.65;25.46
57094;BME280;42970;50.996;3.706;2022-08-11T15:15:15;74276.78;;;-146.65;25.38
57094;BME280;42970;50.996;3.706;2022-08-11T15:18:02;74292.91;;;-146.65;25.44
57094;BME280;42970;50.996;3.706;2022-08-11T15:20:29;74296.94;;;-146.65;25.14
57094;BME280;42970;50.996;3.706;2022-08-11T15:23:13;74292.91;;;-146.65;25.37
57094;BME280;42970;50.996;3.706;2022-08-11T15:26:01;74276.78;;;-146.65;25.26
57094;BME280;42970;50.996;3.706;2022-08-11T15:28:29;74288.88;;;-146.65;25.36
57094;BME280;42970;50.996;3.706;2022-08-11T15:31:15;74294.94;;;-146.65;25.59
57094;BME280;42970;50.996;3.706;2022-08-11T15:33:51;74298.97;;;-146.65;25.03
57094;BME280;42970;50.996;3.706;2022-08-11T15:36:36;74282.84;;;-146.65;25.46
57094;BME280;42970;50.996;3.706;2022-08-11T15:39:25;74276.78;;;-146.65;25.10
57094;BME280;42970;50.996;3.706;2022-08-11T15:42:06;74294.94;;;-146.65;24.93
57094;BME280;42970;50.996;3.706;2022-08-11T15:44:58;74290.91;;;-146.65;25.09
57094;BME280;42970;50.996;3.706;2022-08-11T15:48:05;74266.69;;;-146.65;25.33
57094;BME280;42970;50.996;3.706;2022-08-11T15:50:33;74274.78;;;-146.65;25.28
57094;BME280;42970;50.996;3.706;2022-08-11T15:53:08;74305.00;;;-146.65;24.98
57094;BME280;42970;50.996;3.706;2022-08-11T15:55:36;74284.84;;;-146.65;24.79
57094;BME280;42970;50.996;3.706;2022-08-11T15:58:06;74268.72;;;-146.65;25.05
57094;BME280;42970;50.996;3.706;2022-08-11T16:00:52;74240.50;;;-146.65;24.86
57094;BME280;42970;50.996;3.706;2022-08-11T16:03:50;74250.56;;;-146.65;24.58
57094;BME280;42970;50.996;3.706;2022-08-11T16:09:14;74288.88;;;-146.65;24.74
57094;BME280;42970;50.996;3.706;2022-08-11T16:11:40;74274.78;;;-146.65;24.91
57094;BME280;42970;50.996;3.706;2022-08-11T16:14:08;74250.56;;;-146.65;25.07
57094;BME280;42970;50.996;3.706;2022-08-11T16:16:53;74270.75;;;-146.65;24.61
57094;BME280;42970;50.996;3.706;2022-08-11T16:19:24;74294.94;;;-146.65;24.79
57094;BME280;42970;50.996;3.706;2022-08-11T16:21:52;74284.84;;;-146.65;24.68
57094;BME280;42970;50.996;3.706;2022-08-11T16:24:19;74286.88;;;-146.65;24.51
57094;BME280;42970;50.996;3.706;2022-08-11T16:26:47;74286.88;;;-146.65;24.58